createdAt,value
2017-10-15T00:00:21.688Z,0
2017-10-15T00:01:22.307Z,0
2017-10-15T00:02:22.917Z,0
2017-10-15T00:03:23.530Z,0
2017-10-15T00:04:24.174Z,0
2017-10-15T00:05:24.936Z,0
2017-10-15T00:06:25.549Z,0
2017-10-15T00:07:26.163Z,0
2017-10-15T00:08:26.776Z,0
2017-10-15T00:09:27.396Z,0
2017-10-15T00:10:28.157Z,0
2017-10-15T00:11:28.771Z,0
2017-10-15T00:12:29.383Z,0
2017-10-15T00:13:29.995Z,0
2017-10-15T00:14:30.608Z,0
2017-10-15T00:15:31.371Z,0
2017-10-15T00:16:31.995Z,0
2017-10-15T00:17:32.634Z,0
2017-10-15T00:18:33.252Z,0
2017-10-15T00:19:33.861Z,0
2017-10-15T00:20:34.625Z,0
2017-10-15T00:21:35.238Z,0
2017-10-15T00:22:35.858Z,0
2017-10-15T00:23:36.468Z,0
2017-10-15T00:24:37.082Z,0
2017-10-15T00:25:37.848Z,0
2017-10-15T00:26:38.459Z,0
2017-10-15T00:27:39.103Z,0
2017-10-15T00:28:39.716Z,0
2017-10-15T00:29:40.327Z,0
2017-10-15T00:30:41.121Z,0
2017-10-15T00:31:41.740Z,0
2017-10-15T00:32:42.384Z,0
2017-10-15T00:33:42.996Z,0
2017-10-15T00:34:43.638Z,0
2017-10-15T00:35:44.399Z,0
2017-10-15T00:36:45.016Z,0
2017-10-15T00:37:45.655Z,0
2017-10-15T00:38:46.269Z,0
2017-10-15T00:39:46.886Z,0
2017-10-15T00:40:47.647Z,0
2017-10-15T00:41:48.260Z,0
2017-10-15T00:42:48.880Z,0
2017-10-15T00:43:49.485Z,0
2017-10-15T00:44:50.106Z,0
2017-10-15T00:45:50.895Z,0
2017-10-15T00:46:51.510Z,0
2017-10-15T00:47:52.124Z,0
2017-10-15T00:48:52.736Z,0
2017-10-15T00:49:53.349Z,0
2017-10-15T00:50:54.111Z,0
2017-10-15T00:51:54.725Z,0
2017-10-15T00:52:55.373Z,0
2017-10-15T00:53:55.985Z,0
2017-10-15T00:54:56.598Z,0
2017-10-15T00:55:57.358Z,0
2017-10-15T00:56:57.985Z,0
2017-10-15T00:57:58.624Z,0
2017-10-15T00:58:59.240Z,0
2017-10-15T00:59:59.851Z,0
2017-10-15T01:01:00.613Z,0
2017-10-15T01:02:01.224Z,0
2017-10-15T01:03:01.838Z,0
2017-10-15T01:04:02.452Z,0
2017-10-15T01:05:03.065Z,0
2017-10-15T01:06:03.828Z,0
2017-10-15T01:07:04.472Z,0
2017-10-15T01:08:05.084Z,0
2017-10-15T01:09:05.706Z,0
2017-10-15T01:10:06.316Z,0
2017-10-15T01:11:07.083Z,0
2017-10-15T01:12:07.693Z,0
2017-10-15T01:13:08.306Z,0
2017-10-15T01:14:08.920Z,0
2017-10-15T01:15:09.538Z,0
2017-10-15T01:16:10.303Z,0
2017-10-15T01:17:10.920Z,0
2017-10-15T01:18:11.531Z,0
2017-10-15T01:19:12.150Z,0
2017-10-15T01:20:12.759Z,0
2017-10-15T01:21:13.527Z,0
2017-10-15T01:22:14.137Z,0
2017-10-15T01:23:14.750Z,0
2017-10-15T01:24:15.363Z,0
2017-10-15T01:25:15.981Z,0
2017-10-15T01:26:16.772Z,0
2017-10-15T01:27:17.391Z,0
2017-10-15T01:28:18.000Z,0
2017-10-15T01:29:18.620Z,0
2017-10-15T01:30:19.227Z,0
2017-10-15T01:31:19.989Z,0
2017-10-15T01:32:20.607Z,0
2017-10-15T01:33:21.218Z,0
2017-10-15T01:34:21.831Z,0
2017-10-15T01:35:22.442Z,0
2017-10-15T01:36:23.204Z,0
2017-10-15T01:37:23.828Z,0
2017-10-15T01:38:24.437Z,0
2017-10-15T01:39:25.056Z,0
2017-10-15T01:40:25.659Z,0
2017-10-15T01:41:26.464Z,0
2017-10-15T01:42:27.095Z,0
2017-10-15T01:43:27.709Z,0
2017-10-15T01:44:28.323Z,0
2017-10-15T01:45:28.942Z,0
2017-10-15T01:46:29.706Z,0
2017-10-15T01:47:30.318Z,0
2017-10-15T01:48:30.931Z,0
2017-10-15T01:49:31.574Z,0
2017-10-15T01:50:32.188Z,0
2017-10-15T01:51:32.951Z,0
2017-10-15T01:52:33.569Z,0
2017-10-15T01:53:34.187Z,0
2017-10-15T01:54:34.795Z,0
2017-10-15T01:55:35.406Z,0
2017-10-15T01:56:36.169Z,0
2017-10-15T01:57:36.784Z,0
2017-10-15T01:58:37.396Z,0
2017-10-15T01:59:38.014Z,0
2017-10-15T02:00:38.623Z,0
2017-10-15T02:01:39.386Z,0
2017-10-15T02:02:40.006Z,0
2017-10-15T02:03:40.622Z,0
2017-10-15T02:04:41.232Z,0
2017-10-15T02:05:41.849Z,0
2017-10-15T02:06:42.642Z,0
2017-10-15T02:07:43.261Z,0
2017-10-15T02:08:43.870Z,0
2017-10-15T02:09:44.486Z,0
2017-10-15T02:10:45.103Z,0
2017-10-15T02:11:45.867Z,0
2017-10-15T02:12:46.475Z,0
2017-10-15T02:13:47.088Z,0
2017-10-15T02:14:47.708Z,0
2017-10-15T02:15:48.323Z,0
2017-10-15T02:16:49.080Z,0
2017-10-15T02:17:49.695Z,0
2017-10-15T02:18:50.306Z,0
2017-10-15T02:19:50.954Z,0
2017-10-15T02:20:51.564Z,0
2017-10-15T02:21:52.329Z,0
2017-10-15T02:22:52.943Z,0
2017-10-15T02:23:53.554Z,0
2017-10-15T02:24:54.197Z,0
2017-10-15T02:25:54.809Z,0
2017-10-15T02:26:55.622Z,0
2017-10-15T02:27:56.234Z,0
2017-10-15T02:28:56.852Z,0
2017-10-15T02:29:57.462Z,0
2017-10-15T02:30:58.109Z,0
2017-10-15T02:31:58.869Z,0
2017-10-15T02:32:59.484Z,0
2017-10-15T02:34:00.096Z,0
2017-10-15T02:35:00.713Z,0
2017-10-15T02:36:01.323Z,0
2017-10-15T02:37:02.086Z,0
2017-10-15T02:38:02.698Z,0
2017-10-15T02:39:03.310Z,0
2017-10-15T02:40:03.928Z,0
2017-10-15T02:41:04.543Z,0
2017-10-15T02:42:05.308Z,0
2017-10-15T02:43:05.923Z,0
2017-10-15T02:44:06.541Z,0
2017-10-15T02:45:07.150Z,0
2017-10-15T02:46:07.760Z,0
2017-10-15T02:47:08.526Z,0
2017-10-15T02:48:09.136Z,0
2017-10-15T02:49:09.748Z,0
2017-10-15T02:50:10.361Z,0
2017-10-15T02:51:10.973Z,0
2017-10-15T02:52:11.740Z,0
2017-10-15T02:53:12.351Z,0
2017-10-15T02:54:12.994Z,0
2017-10-15T02:55:13.635Z,0
2017-10-15T02:56:14.246Z,0
2017-10-15T02:57:15.009Z,0
2017-10-15T02:58:15.624Z,0
2017-10-15T02:59:16.236Z,0
2017-10-15T03:00:16.850Z,0
2017-10-15T03:01:17.459Z,0
2017-10-15T03:02:18.223Z,0
2017-10-15T03:03:18.836Z,0
2017-10-15T03:04:19.454Z,0
2017-10-15T03:05:20.063Z,0
2017-10-15T03:06:20.677Z,0
2017-10-15T03:07:21.474Z,0
2017-10-15T03:08:22.104Z,0
2017-10-15T03:09:22.699Z,0
2017-10-15T03:10:23.311Z,0
2017-10-15T03:11:23.929Z,0
2017-10-15T03:12:24.689Z,0
2017-10-15T03:13:25.309Z,0
2017-10-15T03:14:25.919Z,0
2017-10-15T03:15:26.531Z,0
2017-10-15T03:16:27.144Z,0
2017-10-15T03:17:27.907Z,0
2017-10-15T03:18:28.518Z,0
2017-10-15T03:19:29.130Z,0
2017-10-15T03:20:29.742Z,0
2017-10-15T03:21:30.356Z,0
2017-10-15T03:22:31.147Z,0
2017-10-15T03:23:31.762Z,0
2017-10-15T03:24:32.405Z,0
2017-10-15T03:25:33.019Z,0
2017-10-15T03:26:33.631Z,0
2017-10-15T03:27:34.394Z,0
2017-10-15T03:28:35.005Z,0
2017-10-15T03:29:35.618Z,0
2017-10-15T03:30:36.238Z,0
2017-10-15T03:31:36.847Z,0
2017-10-15T03:32:37.611Z,0
2017-10-15T03:33:38.231Z,0
2017-10-15T03:34:38.869Z,0
2017-10-15T03:35:39.493Z,0
2017-10-15T03:36:40.099Z,0
2017-10-15T03:37:40.899Z,0
2017-10-15T03:38:41.509Z,0
2017-10-15T03:39:42.121Z,0
2017-10-15T03:40:42.732Z,0
2017-10-15T03:41:43.345Z,0
2017-10-15T03:42:44.109Z,0
2017-10-15T03:43:44.722Z,0
2017-10-15T03:44:45.334Z,0
2017-10-15T03:45:45.947Z,0
2017-10-15T03:46:46.560Z,0
2017-10-15T03:47:47.323Z,0
2017-10-15T03:48:47.970Z,0
2017-10-15T03:49:48.583Z,0
2017-10-15T03:50:49.197Z,0
2017-10-15T03:51:49.808Z,0
2017-10-15T03:52:50.570Z,0
2017-10-15T03:53:51.183Z,0
2017-10-15T03:54:51.799Z,0
2017-10-15T03:55:52.408Z,0
2017-10-15T03:56:53.020Z,0
2017-10-15T03:57:53.785Z,0
2017-10-15T03:58:54.397Z,0
2017-10-15T03:59:55.009Z,0
2017-10-15T04:00:55.632Z,0
2017-10-15T04:01:56.242Z,0
2017-10-15T04:02:57.002Z,0
2017-10-15T04:03:57.616Z,0
2017-10-15T04:04:58.228Z,0
2017-10-15T04:05:58.846Z,0
2017-10-15T04:06:59.455Z,0
2017-10-15T04:08:00.218Z,0
2017-10-15T04:09:00.832Z,0
2017-10-15T04:10:01.451Z,0
2017-10-15T04:11:02.059Z,0
2017-10-15T04:12:02.710Z,0
2017-10-15T04:13:03.467Z,0
2017-10-15T04:14:04.082Z,0
2017-10-15T04:15:04.691Z,0
2017-10-15T04:16:05.306Z,0
2017-10-15T04:17:05.917Z,0
2017-10-15T04:18:06.679Z,0
2017-10-15T04:19:07.320Z,0
2017-10-15T04:20:07.933Z,0
2017-10-15T04:21:08.545Z,0
2017-10-15T04:22:09.159Z,0
2017-10-15T04:23:09.973Z,0
2017-10-15T04:24:10.584Z,0
2017-10-15T04:25:11.198Z,0
2017-10-15T04:26:11.811Z,0
2017-10-15T04:27:12.453Z,0
2017-10-15T04:28:13.221Z,0
2017-10-15T04:29:13.831Z,0
2017-10-15T04:30:14.443Z,0
2017-10-15T04:31:15.054Z,0
2017-10-15T04:32:15.673Z,0
2017-10-15T04:33:16.442Z,0
2017-10-15T04:34:17.047Z,0
2017-10-15T04:35:17.660Z,0
2017-10-15T04:36:18.273Z,0
2017-10-15T04:37:18.888Z,0
2017-10-15T04:38:19.649Z,0
2017-10-15T04:39:20.268Z,0
2017-10-15T04:40:20.880Z,0
2017-10-15T04:41:21.491Z,0
2017-10-15T04:42:22.102Z,0
2017-10-15T04:43:22.866Z,0
2017-10-15T04:44:23.480Z,0
2017-10-15T04:45:24.095Z,0
2017-10-15T04:46:24.743Z,0
2017-10-15T04:47:25.352Z,0
2017-10-15T04:48:26.152Z,0
2017-10-15T04:49:26.759Z,0
2017-10-15T04:50:27.373Z,0
2017-10-15T04:51:27.990Z,0
2017-10-15T04:52:28.601Z,0
2017-10-15T04:53:29.369Z,0
2017-10-15T04:54:29.976Z,0
2017-10-15T04:55:30.589Z,0
2017-10-15T04:56:31.232Z,0
2017-10-15T04:57:31.849Z,0
2017-10-15T04:58:32.610Z,0
2017-10-15T04:59:33.223Z,0
2017-10-15T05:00:33.840Z,0
2017-10-15T05:01:34.451Z,0
2017-10-15T05:02:35.065Z,0
2017-10-15T05:03:35.826Z,0
2017-10-15T05:04:36.438Z,0
2017-10-15T05:05:37.052Z,0
2017-10-15T05:06:37.672Z,0
2017-10-15T05:07:38.280Z,0
2017-10-15T05:08:39.045Z,0
2017-10-15T05:09:39.656Z,0
2017-10-15T05:10:40.269Z,0
2017-10-15T05:11:40.887Z,0
2017-10-15T05:12:41.496Z,0
2017-10-15T05:13:42.263Z,0
2017-10-15T05:14:42.874Z,0
2017-10-15T05:15:43.484Z,0
2017-10-15T05:16:44.126Z,0
2017-10-15T05:17:44.769Z,0
2017-10-15T05:18:45.533Z,0
2017-10-15T05:19:46.144Z,0
2017-10-15T05:20:46.759Z,0
2017-10-15T05:21:47.369Z,0
2017-10-15T05:22:47.986Z,0
2017-10-15T05:23:48.749Z,0
2017-10-15T05:24:49.395Z,0
2017-10-15T05:25:50.010Z,0
2017-10-15T05:26:50.618Z,0
2017-10-15T05:27:51.231Z,0
2017-10-15T05:28:51.992Z,0
2017-10-15T05:29:52.611Z,0
2017-10-15T05:30:53.228Z,4
2017-10-15T05:31:53.867Z,0
2017-10-15T05:32:54.477Z,4
2017-10-15T05:33:55.238Z,0
2017-10-15T05:34:55.881Z,4
2017-10-15T05:35:56.506Z,0
2017-10-15T05:36:57.143Z,0
2017-10-15T05:37:57.761Z,4
2017-10-15T05:38:58.621Z,4
2017-10-15T05:39:59.234Z,0
2017-10-15T05:40:59.854Z,4
2017-10-15T05:42:00.465Z,4
2017-10-15T05:43:01.103Z,4
2017-10-15T05:44:01.870Z,4
2017-10-15T05:45:02.479Z,4
2017-10-15T05:46:03.091Z,4
2017-10-15T05:47:03.735Z,4
2017-10-15T05:48:04.344Z,4
2017-10-15T05:49:05.106Z,8
2017-10-15T05:50:05.719Z,8
2017-10-15T05:51:06.334Z,8
2017-10-15T05:52:06.946Z,8
2017-10-15T05:53:07.557Z,8
2017-10-15T05:54:08.325Z,8
2017-10-15T05:55:08.937Z,8
2017-10-15T05:56:09.552Z,12
2017-10-15T05:57:10.202Z,12
2017-10-15T05:58:10.810Z,12
2017-10-15T05:59:11.572Z,12
2017-10-15T06:00:12.186Z,12
2017-10-15T06:01:12.830Z,12
2017-10-15T06:02:13.444Z,16
2017-10-15T06:03:14.060Z,16
2017-10-15T06:04:14.855Z,16
2017-10-15T06:05:15.468Z,16
2017-10-15T06:06:16.081Z,20
2017-10-15T06:07:16.694Z,16
2017-10-15T06:08:17.308Z,20
2017-10-15T06:09:18.073Z,20
2017-10-15T06:10:18.687Z,20
2017-10-15T06:11:19.300Z,20
2017-10-15T06:12:19.917Z,20
2017-10-15T06:13:20.559Z,20
2017-10-15T06:14:21.354Z,24
2017-10-15T06:15:21.967Z,20
2017-10-15T06:16:22.577Z,24
2017-10-15T06:17:23.190Z,24
2017-10-15T06:18:23.805Z,20
2017-10-15T06:19:24.569Z,24
2017-10-15T06:20:25.182Z,24
2017-10-15T06:21:25.797Z,24
2017-10-15T06:22:26.406Z,24
2017-10-15T06:23:27.028Z,28
2017-10-15T06:24:27.793Z,24
2017-10-15T06:25:28.403Z,24
2017-10-15T06:26:29.017Z,28
2017-10-15T06:27:29.629Z,28
2017-10-15T06:28:30.247Z,28
2017-10-15T06:29:31.006Z,28
2017-10-15T06:30:31.623Z,28
2017-10-15T06:31:32.240Z,28
2017-10-15T06:32:32.851Z,28
2017-10-15T06:33:33.495Z,28
2017-10-15T06:34:34.290Z,32
2017-10-15T06:35:34.904Z,28
2017-10-15T06:36:35.547Z,32
2017-10-15T06:37:36.161Z,32
2017-10-15T06:38:36.772Z,32
2017-10-15T06:39:37.542Z,32
2017-10-15T06:40:38.151Z,32
2017-10-15T06:41:38.796Z,32
2017-10-15T06:42:39.406Z,32
2017-10-15T06:43:40.022Z,32
2017-10-15T06:44:40.785Z,36
2017-10-15T06:45:41.399Z,36
2017-10-15T06:46:42.019Z,36
2017-10-15T06:47:42.628Z,32
2017-10-15T06:48:43.249Z,36
2017-10-15T06:49:44.009Z,36
2017-10-15T06:50:44.624Z,36
2017-10-15T06:51:45.239Z,36
2017-10-15T06:52:45.853Z,36
2017-10-15T06:53:46.466Z,36
2017-10-15T06:54:47.230Z,36
2017-10-15T06:55:47.854Z,36
2017-10-15T06:56:48.466Z,36
2017-10-15T06:57:49.077Z,40
2017-10-15T06:58:49.695Z,36
2017-10-15T06:59:50.455Z,40
2017-10-15T07:00:51.074Z,36
2017-10-15T07:01:51.685Z,40
2017-10-15T07:02:52.303Z,36
2017-10-15T07:03:52.914Z,40
2017-10-15T07:04:53.678Z,40
2017-10-15T07:05:54.289Z,40
2017-10-15T07:06:54.901Z,40
2017-10-15T07:07:55.519Z,40
2017-10-15T07:08:56.131Z,40
2017-10-15T07:09:56.905Z,44
2017-10-15T07:10:57.543Z,40
2017-10-15T07:11:58.186Z,40
2017-10-15T07:12:58.798Z,40
2017-10-15T07:13:59.411Z,40
2017-10-15T07:15:00.207Z,44
2017-10-15T07:16:00.820Z,40
2017-10-15T07:17:01.436Z,44
2017-10-15T07:18:02.046Z,40
2017-10-15T07:19:02.659Z,44
2017-10-15T07:20:03.422Z,44
2017-10-15T07:21:04.036Z,44
2017-10-15T07:22:04.648Z,44
2017-10-15T07:23:05.266Z,44
2017-10-15T07:24:05.877Z,44
2017-10-15T07:25:06.645Z,40
2017-10-15T07:26:07.256Z,44
2017-10-15T07:27:07.869Z,44
2017-10-15T07:28:08.482Z,48
2017-10-15T07:29:09.101Z,68
2017-10-15T07:30:09.868Z,88
2017-10-15T07:31:10.481Z,100
2017-10-15T07:32:11.097Z,100
2017-10-15T07:33:11.717Z,104
2017-10-15T07:34:12.330Z,108
2017-10-15T07:35:13.095Z,112
2017-10-15T07:36:13.743Z,112
2017-10-15T07:37:14.359Z,116
2017-10-15T07:38:14.976Z,112
2017-10-15T07:39:15.590Z,116
2017-10-15T07:40:16.356Z,116
2017-10-15T07:41:16.972Z,120
2017-10-15T07:42:17.587Z,120
2017-10-15T07:43:18.203Z,124
2017-10-15T07:44:18.826Z,124
2017-10-15T07:45:19.589Z,124
2017-10-15T07:46:20.206Z,128
2017-10-15T07:47:20.829Z,128
2017-10-15T07:48:21.446Z,128
2017-10-15T07:49:22.059Z,132
2017-10-15T07:50:22.825Z,132
2017-10-15T07:51:23.476Z,136
2017-10-15T07:52:24.096Z,136
2017-10-15T07:53:24.711Z,136
2017-10-15T07:54:25.322Z,140
2017-10-15T07:55:26.124Z,140
2017-10-15T07:56:26.742Z,144
2017-10-15T07:57:27.360Z,144
2017-10-15T07:58:27.974Z,144
2017-10-15T07:59:28.590Z,144
2017-10-15T08:00:29.356Z,148
2017-10-15T08:01:29.974Z,152
2017-10-15T08:02:30.595Z,152
2017-10-15T08:03:31.208Z,156
2017-10-15T08:04:31.825Z,156
2017-10-15T08:05:32.594Z,156
2017-10-15T08:06:33.214Z,164
2017-10-15T08:07:33.829Z,164
2017-10-15T08:08:34.444Z,164
2017-10-15T08:09:35.068Z,164
2017-10-15T08:10:35.866Z,168
2017-10-15T08:11:36.487Z,172
2017-10-15T08:12:37.097Z,172
2017-10-15T08:13:37.715Z,172
2017-10-15T08:14:38.338Z,176
2017-10-15T08:15:39.102Z,176
2017-10-15T08:16:39.720Z,180
2017-10-15T08:17:40.342Z,184
2017-10-15T08:18:40.988Z,184
2017-10-15T08:19:41.603Z,188
2017-10-15T08:20:42.369Z,192
2017-10-15T08:21:42.983Z,192
2017-10-15T08:22:43.606Z,192
2017-10-15T08:23:44.219Z,196
2017-10-15T08:24:44.841Z,200
2017-10-15T08:25:45.612Z,204
2017-10-15T08:26:46.241Z,208
2017-10-15T08:27:46.844Z,204
2017-10-15T08:28:47.461Z,208
2017-10-15T08:29:48.082Z,212
2017-10-15T08:30:48.855Z,212
2017-10-15T08:31:49.501Z,216
2017-10-15T08:32:50.117Z,216
2017-10-15T08:33:50.741Z,224
2017-10-15T08:34:51.354Z,224
2017-10-15T08:35:52.123Z,224
2017-10-15T08:36:52.741Z,228
2017-10-15T08:37:53.357Z,232
2017-10-15T08:38:53.977Z,232
2017-10-15T08:39:54.632Z,232
2017-10-15T08:40:55.393Z,240
2017-10-15T08:41:56.015Z,240
2017-10-15T08:42:56.632Z,244
2017-10-15T08:43:57.255Z,248
2017-10-15T08:44:57.902Z,252
2017-10-15T08:45:58.669Z,256
2017-10-15T08:46:59.290Z,260
2017-10-15T08:47:59.914Z,260
2017-10-15T08:49:00.528Z,268
2017-10-15T08:50:01.144Z,268
2017-10-15T08:51:01.948Z,272
2017-10-15T08:52:02.600Z,280
2017-10-15T08:53:03.213Z,284
2017-10-15T08:54:03.832Z,288
2017-10-15T08:55:04.448Z,292
2017-10-15T08:56:05.215Z,296
2017-10-15T08:57:05.838Z,304
2017-10-15T08:58:06.457Z,312
2017-10-15T08:59:07.072Z,312
2017-10-15T09:00:07.695Z,320
2017-10-15T09:01:08.467Z,324
2017-10-15T09:02:09.088Z,332
2017-10-15T09:03:09.702Z,340
2017-10-15T09:04:10.324Z,348
2017-10-15T09:05:10.944Z,364
2017-10-15T09:06:11.711Z,372
2017-10-15T09:07:12.329Z,384
2017-10-15T09:08:12.947Z,396
2017-10-15T09:09:13.573Z,412
2017-10-15T09:10:14.183Z,424
2017-10-15T09:11:14.955Z,436
2017-10-15T09:12:15.572Z,448
2017-10-15T09:13:16.189Z,460
2017-10-15T09:14:16.874Z,472
2017-10-15T09:15:17.461Z,484
2017-10-15T09:16:18.225Z,496
2017-10-15T09:17:18.849Z,508
2017-10-15T09:18:19.466Z,520
2017-10-15T09:19:20.090Z,528
2017-10-15T09:20:20.710Z,540
2017-10-15T09:21:21.477Z,552
2017-10-15T09:22:22.095Z,560
2017-10-15T09:23:22.714Z,568
2017-10-15T09:24:23.332Z,576
2017-10-15T09:25:23.951Z,584
2017-10-15T09:26:24.719Z,596
2017-10-15T09:27:25.338Z,604
2017-10-15T09:28:25.959Z,616
2017-10-15T09:29:26.577Z,624
2017-10-15T09:30:27.195Z,632
2017-10-15T09:31:27.998Z,644
2017-10-15T09:32:28.618Z,656
2017-10-15T09:33:29.234Z,664
2017-10-15T09:34:29.863Z,672
2017-10-15T09:35:30.485Z,684
2017-10-15T09:36:31.252Z,692
2017-10-15T09:37:31.874Z,704
2017-10-15T09:38:32.493Z,712
2017-10-15T09:39:33.112Z,724
2017-10-15T09:40:33.735Z,732
2017-10-15T09:41:34.529Z,744
2017-10-15T09:42:35.155Z,748
2017-10-15T09:43:35.781Z,756
2017-10-15T09:44:36.391Z,768
2017-10-15T09:45:37.010Z,776
2017-10-15T09:46:37.779Z,780
2017-10-15T09:47:38.405Z,796
2017-10-15T09:48:39.025Z,800
2017-10-15T09:49:39.644Z,808
2017-10-15T09:50:40.264Z,820
2017-10-15T09:51:41.036Z,824
2017-10-15T09:52:41.662Z,832
2017-10-15T09:53:42.284Z,844
2017-10-15T09:54:42.900Z,848
2017-10-15T09:55:43.533Z,856
2017-10-15T09:56:44.328Z,864
2017-10-15T09:57:44.950Z,872
2017-10-15T09:58:45.568Z,880
2017-10-15T09:59:46.192Z,888
2017-10-15T10:00:46.812Z,900
2017-10-15T10:01:47.613Z,904
2017-10-15T10:02:48.233Z,908
2017-10-15T10:03:48.857Z,920
2017-10-15T10:04:49.477Z,924
2017-10-15T10:05:50.096Z,932
2017-10-15T10:06:50.872Z,940
2017-10-15T10:07:51.489Z,944
2017-10-15T10:08:52.110Z,948
2017-10-15T10:09:52.730Z,956
2017-10-15T10:10:53.355Z,960
2017-10-15T10:11:54.123Z,972
2017-10-15T10:12:54.752Z,976
2017-10-15T10:13:55.393Z,980
2017-10-15T10:14:56.013Z,988
2017-10-15T10:15:56.639Z,992
2017-10-15T10:16:57.415Z,992
2017-10-15T10:17:58.035Z,1000
2017-10-15T10:18:58.664Z,1004
2017-10-15T10:19:59.285Z,1008
2017-10-15T10:20:59.903Z,1012
2017-10-15T10:22:00.679Z,1020
2017-10-15T10:23:01.301Z,1024
2017-10-15T10:24:01.922Z,1028
2017-10-15T10:25:02.552Z,1032
2017-10-15T10:26:03.170Z,1036
2017-10-15T10:27:04.095Z,1044
2017-10-15T10:28:04.719Z,1040
2017-10-15T10:29:05.344Z,1048
2017-10-15T10:30:05.963Z,1052
2017-10-15T10:31:06.586Z,1052
2017-10-15T10:32:07.358Z,1060
2017-10-15T10:33:07.987Z,1060
2017-10-15T10:34:08.607Z,1064
2017-10-15T10:35:09.230Z,1068
2017-10-15T10:36:09.854Z,1068
2017-10-15T10:37:10.626Z,1076
2017-10-15T10:38:11.255Z,1080
2017-10-15T10:39:11.874Z,1080
2017-10-15T10:40:12.498Z,1084
2017-10-15T10:41:13.121Z,1088
2017-10-15T10:42:13.892Z,1088
2017-10-15T10:43:14.544Z,1092
2017-10-15T10:44:15.168Z,1096
2017-10-15T10:45:15.789Z,1100
2017-10-15T10:46:16.412Z,1100
2017-10-15T10:47:17.192Z,1104
2017-10-15T10:48:17.811Z,1108
2017-10-15T10:49:18.435Z,1108
2017-10-15T10:50:19.068Z,1112
2017-10-15T10:51:19.685Z,1116
2017-10-15T10:52:20.572Z,1120
2017-10-15T10:53:21.215Z,1120
2017-10-15T10:54:21.836Z,1120
2017-10-15T10:55:22.463Z,1124
2017-10-15T10:56:23.084Z,1128
2017-10-15T10:57:23.863Z,1132
2017-10-15T10:58:24.486Z,1132
2017-10-15T10:59:25.109Z,1136
2017-10-15T11:00:25.733Z,1140
2017-10-15T11:01:26.356Z,1144
2017-10-15T11:02:27.132Z,1140
2017-10-15T11:03:27.754Z,1148
2017-10-15T11:04:28.379Z,1148
2017-10-15T11:05:29.002Z,1148
2017-10-15T11:06:29.624Z,1148
2017-10-15T11:07:30.552Z,1152
2017-10-15T11:08:31.174Z,1152
2017-10-15T11:09:31.804Z,1160
2017-10-15T11:10:32.425Z,1160
2017-10-15T11:11:33.049Z,1160
2017-10-15T11:12:33.821Z,1164
2017-10-15T11:13:34.445Z,1164
2017-10-15T11:14:35.069Z,1164
2017-10-15T11:15:35.726Z,1164
2017-10-15T11:16:36.349Z,1164
2017-10-15T11:17:37.124Z,1164
2017-10-15T11:18:37.760Z,1164
2017-10-15T11:19:38.375Z,1172
2017-10-15T11:20:39.037Z,1168
2017-10-15T11:21:39.659Z,1168
2017-10-15T11:22:40.432Z,1172
2017-10-15T11:23:41.056Z,1168
2017-10-15T11:24:41.686Z,1168
2017-10-15T11:25:42.305Z,1172
2017-10-15T11:26:42.930Z,1176
2017-10-15T11:27:43.704Z,1176
2017-10-15T11:28:44.330Z,1176
2017-10-15T11:29:44.983Z,1176
2017-10-15T11:30:45.617Z,1176
2017-10-15T11:31:46.231Z,1180
2017-10-15T11:32:47.006Z,1176
2017-10-15T11:33:47.636Z,1180
2017-10-15T11:34:48.257Z,1180
2017-10-15T11:35:48.885Z,1180
2017-10-15T11:36:49.508Z,1180
2017-10-15T11:37:50.281Z,1180
2017-10-15T11:38:50.912Z,1180
2017-10-15T11:39:51.533Z,1184
2017-10-15T11:40:52.162Z,1184
2017-10-15T11:41:52.788Z,1184
2017-10-15T11:42:53.568Z,1184
2017-10-15T11:43:54.188Z,1184
2017-10-15T11:44:54.812Z,1184
2017-10-15T11:45:55.436Z,1184
2017-10-15T11:46:56.061Z,1188
2017-10-15T11:47:56.864Z,1188
2017-10-15T11:48:57.490Z,1192
2017-10-15T11:49:58.114Z,1188
2017-10-15T11:50:58.738Z,1188
2017-10-15T11:51:59.360Z,1192
2017-10-15T11:53:00.144Z,1196
2017-10-15T11:54:00.795Z,1192
2017-10-15T11:55:01.424Z,1196
2017-10-15T11:56:02.049Z,1196
2017-10-15T11:57:02.677Z,1196
2017-10-15T11:58:03.599Z,1200
2017-10-15T11:59:04.222Z,1200
2017-10-15T12:00:04.846Z,1200
2017-10-15T12:01:05.472Z,1200
2017-10-15T12:02:06.095Z,1200
2017-10-15T12:03:06.968Z,1204
2017-10-15T12:04:07.594Z,1208
2017-10-15T12:05:08.217Z,1208
2017-10-15T12:06:08.877Z,1208
2017-10-15T12:07:09.505Z,1212
2017-10-15T12:08:10.287Z,1220
2017-10-15T12:09:10.903Z,1212
2017-10-15T12:10:11.528Z,1216
2017-10-15T12:11:12.159Z,1216
2017-10-15T12:12:12.780Z,1220
2017-10-15T12:13:13.555Z,1224
2017-10-15T12:14:14.179Z,1224
2017-10-15T12:15:14.809Z,1228
2017-10-15T12:16:15.431Z,1228
2017-10-15T12:17:16.053Z,1224
2017-10-15T12:18:16.853Z,1228
2017-10-15T12:19:17.453Z,1232
2017-10-15T12:20:18.076Z,1232
2017-10-15T12:21:18.702Z,1228
2017-10-15T12:22:19.325Z,1236
2017-10-15T12:23:20.100Z,1236
2017-10-15T12:24:20.754Z,1236
2017-10-15T12:25:21.379Z,1244
2017-10-15T12:26:22.003Z,1244
2017-10-15T12:27:22.630Z,1244
2017-10-15T12:28:23.402Z,1244
2017-10-15T12:29:24.035Z,1248
2017-10-15T12:30:24.659Z,1244
2017-10-15T12:31:25.284Z,1252
2017-10-15T12:32:25.907Z,1256
2017-10-15T12:33:26.683Z,1252
2017-10-15T12:34:27.308Z,1260
2017-10-15T12:35:27.962Z,1256
2017-10-15T12:36:28.625Z,1256
2017-10-15T12:37:29.249Z,1264
2017-10-15T12:38:30.021Z,1260
2017-10-15T12:39:30.646Z,1264
2017-10-15T12:40:31.270Z,1264
2017-10-15T12:41:31.899Z,1264
2017-10-15T12:42:32.527Z,1272
2017-10-15T12:43:33.300Z,1268
2017-10-15T12:44:33.924Z,1272
2017-10-15T12:45:34.550Z,1272
2017-10-15T12:46:35.209Z,1272
2017-10-15T12:47:35.860Z,1276
2017-10-15T12:48:36.641Z,1276
2017-10-15T12:49:37.264Z,1276
2017-10-15T12:50:37.890Z,1276
2017-10-15T12:51:38.520Z,1284
2017-10-15T12:52:39.177Z,1280
2017-10-15T12:53:39.958Z,1280
2017-10-15T12:54:40.585Z,1280
2017-10-15T12:55:41.213Z,1280
2017-10-15T12:56:41.835Z,1288
2017-10-15T12:57:42.461Z,1288
2017-10-15T12:58:43.237Z,1288
2017-10-15T12:59:43.864Z,1292
2017-10-15T13:00:44.490Z,1288
2017-10-15T13:01:45.119Z,1292
2017-10-15T13:02:45.741Z,1296
2017-10-15T13:03:46.523Z,1292
2017-10-15T13:04:47.147Z,1292
2017-10-15T13:05:47.780Z,1292
2017-10-15T13:06:48.403Z,1296
2017-10-15T13:07:49.031Z,1300
2017-10-15T13:08:49.813Z,1296
2017-10-15T13:09:50.443Z,1300
2017-10-15T13:10:51.068Z,1300
2017-10-15T13:11:51.695Z,1304
2017-10-15T13:12:52.321Z,1304
2017-10-15T13:13:53.104Z,1300
2017-10-15T13:14:53.728Z,1300
2017-10-15T13:15:54.361Z,1300
2017-10-15T13:16:54.984Z,1304
2017-10-15T13:17:55.609Z,1304
2017-10-15T13:18:56.393Z,1304
2017-10-15T13:19:57.017Z,1304
2017-10-15T13:20:57.645Z,1308
2017-10-15T13:21:58.276Z,1308
2017-10-15T13:22:58.902Z,1304
2017-10-15T13:23:59.676Z,1308
2017-10-15T13:25:00.309Z,1308
2017-10-15T13:26:00.932Z,1308
2017-10-15T13:27:01.559Z,1308
2017-10-15T13:28:02.188Z,1304
2017-10-15T13:29:02.964Z,1312
2017-10-15T13:30:03.598Z,1308
2017-10-15T13:31:04.263Z,1312
2017-10-15T13:32:04.887Z,1308
2017-10-15T13:33:05.518Z,1308
2017-10-15T13:34:06.292Z,1304
2017-10-15T13:35:06.919Z,1308
2017-10-15T13:36:07.546Z,1308
2017-10-15T13:37:08.179Z,1312
2017-10-15T13:38:08.806Z,1304
2017-10-15T13:39:09.578Z,1304
2017-10-15T13:40:10.206Z,1304
2017-10-15T13:41:10.838Z,1304
2017-10-15T13:42:11.462Z,1304
2017-10-15T13:43:12.087Z,1304
2017-10-15T13:44:12.865Z,1300
2017-10-15T13:45:13.497Z,1304
2017-10-15T13:46:14.122Z,1300
2017-10-15T13:47:14.751Z,1300
2017-10-15T13:48:15.379Z,1300
2017-10-15T13:49:16.160Z,1300
2017-10-15T13:50:16.787Z,1300
2017-10-15T13:51:17.409Z,1296
2017-10-15T13:52:18.038Z,1300
2017-10-15T13:53:18.666Z,1300
2017-10-15T13:54:19.442Z,1300
2017-10-15T13:55:20.070Z,1300
2017-10-15T13:56:20.700Z,1296
2017-10-15T13:57:21.324Z,1296
2017-10-15T13:58:21.950Z,1292
2017-10-15T13:59:22.731Z,1292
2017-10-15T14:00:23.355Z,1296
2017-10-15T14:01:23.984Z,1296
2017-10-15T14:02:24.611Z,1292
2017-10-15T14:03:25.243Z,1292
2017-10-15T14:04:26.017Z,1288
2017-10-15T14:05:26.681Z,1292
2017-10-15T14:06:27.310Z,1288
2017-10-15T14:07:27.934Z,1288
2017-10-15T14:08:28.558Z,1288
2017-10-15T14:09:29.335Z,1284
2017-10-15T14:10:29.966Z,1284
2017-10-15T14:11:30.591Z,1280
2017-10-15T14:12:31.224Z,1280
2017-10-15T14:13:31.847Z,1280
2017-10-15T14:14:32.624Z,1280